Time,TemperatureF,DewpointF,PressureIn,WindDirection,WindDirectionDegrees,WindSpeedMPH,WindSpeedGustMPH,Humidity,HourlyPrecipIn,Conditions,Clouds,dailyrainin,SoftwareType,DateUTC
2013-02-20 00:13:00,50.4,44.0,29.89,NW,308,0.0,-999.0,79,-99.99,,,0.22,weatherlink.com 1.10,2013-02-20 05:13:00,
2013-02-20 00:28:00,49.8,44.0,29.88,WNW,299,0.0,-999.0,80,-99.99,,,0.22,weatherlink.com 1.10,2013-02-20 05:28:00,
2013-02-20 00:44:00,49.4,44.0,29.89,WNW,302,0.0,-999.0,81,-99.99,,,0.22,weatherlink.com 1.10,2013-02-20 05:44:00,
2013-02-20 00:57:00,48.9,44.0,29.89,WNW,296,0.0,-999.0,82,-99.99,,,0.22,weatherlink.com 1.10,2013-02-20 05:57:00,
2013-02-20 01:12:00,48.5,44.0,29.89,NW,308,0.0,-999.0,84,-99.99,,,0.22,weatherlink.com 1.10,2013-02-20 06:12:00,
2013-02-20 01:27:00,48.3,44.0,29.89,WNW,288,0.0,-999.0,84,-99.99,,,0.22,weatherlink.com 1.10,2013-02-20 06:27:00,
2013-02-20 01:42:00,48.2,44.0,29.89,NW,315,0.0,-999.0,84,-99.99,,,0.00,weatherlink.com 1.10,2013-02-20 06:42:00,
2013-02-20 01:58:00,48.0,44.0,29.89,NW,313,0.0,-999.0,85,-99.99,,,0.00,weatherlink.com 1.10,2013-02-20 06:58:00,
2013-02-20 02:13:00,47.7,44.0,29.90,WNW,298,0.0,-999.0,86,-99.99,,,0.00,weatherlink.com 1.10,2013-02-20 07:13:00,
2013-02-20 02:27:00,47.7,44.0,29.90,NW,312,0.0,-999.0,87,-99.99,,,0.00,weatherlink.com 1.10,2013-02-20 07:27:00,
2013-02-20 02:43:00,47.1,44.0,29.91,NW,309,0.0,-999.0,88,-99.99,,,0.00,weatherlink.com 1.10,2013-02-20 07:43:00,
2013-02-20 02:58:00,46.8,44.0,29.91,NW,318,0.0,-999.0,89,-99.99,,,0.00,weatherlink.com 1.10,2013-02-20 07:58:00,
2013-02-20 03:12:00,46.2,44.0,29.91,NW,309,0.0,-999.0,90,-99.99,,,0.00,weatherlink.com 1.10,2013-02-20 08:12:00,
2013-02-20 03:27:00,45.7,43.0,29.91,NW,305,0.0,-999.0,91,-99.99,,,0.00,weatherlink.com 1.10,2013-02-20 08:27:00,
2013-02-20 03:42:00,45.1,43.0,29.91,NNW,329,0.0,-999.0,92,-99.99,,,0.00,weatherlink.com 1.10,2013-02-20 08:42:00,
2013-02-20 03:57:00,44.6,43.0,29.91,NW,313,0.0,-999.0,92,-99.99,,,0.00,weatherlink.com 1.10,2013-02-20 08:57:00,
2013-02-20 04:12:00,44.1,42.0,29.91,NW,319,0.0,-999.0,92,-99.99,,,0.00,weatherlink.com 1.10,2013-02-20 09:12:00,
2013-02-20 04:27:00,43.6,42.0,29.92,NW,315,0.0,-999.0,92,-99.99,,,0.00,weatherlink.com 1.10,2013-02-20 09:27:00,
2013-02-20 04:42:00,43.1,41.0,29.93,NNW,330,0.0,-999.0,91,-99.99,,,0.00,weatherlink.com 1.10,2013-02-20 09:42:00,
2013-02-20 04:57:00,42.5,40.0,29.94,NNW,339,0.0,-999.0,89,-99.99,,,0.00,weatherlink.com 1.10,2013-02-20 09:57:00,
2013-02-20 05:13:00,41.9,39.0,29.95,NW,325,0.0,-999.0,89,-99.99,,,0.00,weatherlink.com 1.10,2013-02-20 10:13:00,
2013-02-20 05:27:00,41.3,38.0,29.95,NW,325,0.0,-999.0,89,-99.99,,,0.00,weatherlink.com 1.10,2013-02-20 10:27:00,
2013-02-20 05:42:00,40.6,38.0,29.96,NW,325,0.0,-999.0,90,-99.99,,,0.00,weatherlink.com 1.10,2013-02-20 10:42:00,
2013-02-20 05:57:00,39.9,37.0,29.97,NNW,328,0.0,-999.0,90,-99.99,,,0.00,weatherlink.com 1.10,2013-02-20 10:57:00,
2013-02-20 06:12:00,39.3,37.0,29.97,NNW,328,0.0,-999.0,90,-99.99,,,0.00,weatherlink.com 1.10,2013-02-20 11:12:00,
2013-02-20 06:27:00,38.8,36.0,29.98,North,352,0.0,-999.0,90,-99.99,,,0.00,weatherlink.com 1.10,2013-02-20 11:27:00,
2013-02-20 06:42:00,38.5,36.0,29.99,North,352,0.0,-999.0,89,-99.99,,,0.00,weatherlink.com 1.10,2013-02-20 11:42:00,
2013-02-20 06:58:00,38.0,35.0,30.00,North,353,0.0,-999.0,88,-99.99,,,0.00,weatherlink.com 1.10,2013-02-20 11:58:00,
2013-02-20 07:12:00,38.3,35.0,30.00,NNW,337,0.0,-999.0,87,-99.99,,,0.00,weatherlink.com 1.10,2013-02-20 12:12:00,
2013-02-20 07:27:00,39.1,35.0,30.00,North,1,0.0,-999.0,85,-99.99,,,0.00,weatherlink.com 1.10,2013-02-20 12:27:00,
2013-02-20 07:42:00,39.9,34.0,30.01,North,356,0.0,-999.0,80,-99.99,,,0.00,weatherlink.com 1.10,2013-02-20 12:42:00,
2013-02-20 07:58:00,41.3,34.0,30.02,NW,322,0.0,-999.0,76,-99.99,,,0.00,weatherlink.com 1.10,2013-02-20 12:58:00,
2013-02-20 08:12:00,41.9,32.0,30.03,NNW,336,0.0,-999.0,69,-99.99,,,0.00,weatherlink.com 1.10,2013-02-20 13:12:00,
2013-02-20 08:27:00,42.5,31.0,30.03,NW,319,2.0,-999.0,64,-99.99,,,0.00,weatherlink.com 1.10,2013-02-20 13:27:00,
2013-02-20 08:42:00,43.1,29.0,30.03,West,281,8.0,-999.0,58,-99.99,,,0.00,weatherlink.com 1.10,2013-02-20 13:42:00,
2013-02-20 08:57:00,43.6,27.0,30.03,NNW,329,0.0,-999.0,53,-99.99,,,0.00,weatherlink.com 1.10,2013-02-20 13:57:00,
2013-02-20 09:12:00,44.2,26.0,30.03,NW,316,4.0,-999.0,49,-99.99,,,0.00,weatherlink.com 1.10,2013-02-20 14:12:00,
2013-02-20 09:28:00,45.1,24.0,30.03,NW,311,4.0,-999.0,44,-99.99,,,0.00,weatherlink.com 1.10,2013-02-20 14:28:00,
2013-02-20 09:43:00,45.7,23.0,30.03,North,352,9.0,-999.0,41,-99.99,,,0.00,weatherlink.com 1.10,2013-02-20 14:43:00,
2013-02-20 09:57:00,46.4,25.0,30.02,NW,326,0.0,-999.0,44,-99.99,,,0.00,weatherlink.com 1.10,2013-02-20 14:57:00,
2013-02-20 10:12:00,47.4,23.0,30.02,NNW,339,2.0,-999.0,39,-99.99,,,0.00,weatherlink.com 1.10,2013-02-20 15:12:00,
2013-02-20 10:27:00,48.2,15.0,30.02,NNW,342,9.0,-999.0,27,-99.99,,,0.00,weatherlink.com 1.10,2013-02-20 15:27:00,
2013-02-20 10:42:00,49.4,17.0,30.02,NNW,329,0.0,-999.0,28,-99.99,,,0.00,weatherlink.com 1.10,2013-02-20 15:42:00,
2013-02-20 10:58:00,50.1,17.0,30.02,NW,311,0.0,-999.0,27,-99.99,,,0.00,weatherlink.com 1.10,2013-02-20 15:58:00,
2013-02-20 11:12:00,50.5,17.0,30.03,NW,318,0.0,-999.0,27,-99.99,,,0.00,weatherlink.com 1.10,2013-02-20 16:12:00,
2013-02-20 11:27:00,50.7,16.0,30.02,West,270,0.0,-999.0,25,-99.99,,,0.00,weatherlink.com 1.10,2013-02-20 16:27:00,
2013-02-20 11:43:00,51.3,17.0,30.01,WNW,298,9.0,-999.0,26,-99.99,,,0.00,weatherlink.com 1.10,2013-02-20 16:43:00,
2013-02-20 11:57:00,51.6,17.0,30.01,NW,305,1.0,-999.0,25,-99.99,,,0.00,weatherlink.com 1.10,2013-02-20 16:57:00,
2013-02-20 12:12:00,52.2,18.0,30.01,West,281,0.0,-999.0,26,-99.99,,,0.00,weatherlink.com 1.10,2013-02-20 17:12:00,
2013-02-20 12:27:00,52.5,16.0,30.00,West,278,1.0,-999.0,24,-99.99,,,0.00,weatherlink.com 1.10,2013-02-20 17:27:00,
2013-02-20 12:42:00,53.3,15.0,29.99,NNW,344,8.0,-999.0,22,-99.99,,,0.00,weatherlink.com 1.10,2013-02-20 17:42:00,
2013-02-20 12:57:00,53.6,16.0,29.98,NW,313,0.0,-999.0,23,-99.99,,,0.00,weatherlink.com 1.10,2013-02-20 17:57:00,
2013-02-20 13:12:00,53.8,26.0,29.97,WSW,246,0.0,-999.0,34,-99.99,,,0.00,weatherlink.com 1.10,2013-02-20 18:12:00,
2013-02-20 13:27:00,53.6,20.0,29.97,West,275,0.0,-999.0,27,-99.99,,,0.00,weatherlink.com 1.10,2013-02-20 18:27:00,
2013-02-20 13:42:00,54.5,27.0,29.96,WNW,299,6.0,-999.0,35,-99.99,,,0.00,weatherlink.com 1.10,2013-02-20 18:42:00,
2013-02-20 13:58:00,55.3,17.0,29.95,NW,316,4.0,-999.0,22,-99.99,,,0.00,weatherlink.com 1.10,2013-02-20 18:58:00,
2013-02-20 14:12:00,54.2,24.0,29.95,SW,229,0.0,-999.0,31,-99.99,,,0.00,weatherlink.com 1.10,2013-02-20 19:12:00,
2013-02-20 14:27:00,55.6,20.0,29.95,WSW,239,1.0,-999.0,25,-99.99,,,0.00,weatherlink.com 1.10,2013-02-20 19:27:00,
2013-02-20 14:42:00,55.3,28.0,29.95,WSW,251,4.0,-999.0,35,-99.99,,,0.00,weatherlink.com 1.10,2013-02-20 19:42:00,
2013-02-20 14:57:00,55.1,27.0,29.94,West,267,2.0,-999.0,34,-99.99,,,0.00,weatherlink.com 1.10,2013-02-20 19:57:00,
2013-02-20 15:12:00,54.7,26.0,29.94,WNW,289,0.0,-999.0,33,-99.99,,,0.00,weatherlink.com 1.10,2013-02-20 20:12:00,
2013-02-20 15:27:00,55.3,30.0,29.94,WSW,258,0.0,-999.0,38,-99.99,,,0.00,weatherlink.com 1.10,2013-02-20 20:27:00,
2013-02-20 15:43:00,55.7,18.0,29.94,NW,304,4.0,-999.0,23,-99.99,,,0.00,weatherlink.com 1.10,2013-02-20 20:43:00,
2013-02-20 15:57:00,56.0,16.0,29.94,WNW,301,0.0,-999.0,21,-99.99,,,0.00,weatherlink.com 1.10,2013-02-20 20:57:00,
2013-02-20 16:13:00,55.3,18.0,29.95,NNW,332,0.0,-999.0,23,-99.99,,,0.00,weatherlink.com 1.10,2013-02-20 21:13:00,
2013-02-20 16:27:00,54.7,17.0,29.95,NW,325,0.0,-999.0,23,-99.99,,,0.00,weatherlink.com 1.10,2013-02-20 21:27:00,
2013-02-20 16:42:00,55.0,17.0,29.95,NW,313,0.0,-999.0,22,-99.99,,,0.00,weatherlink.com 1.10,2013-02-20 21:42:00,
2013-02-20 16:57:00,52.9,16.0,29.95,WNW,302,4.0,-999.0,23,-99.99,,,0.00,weatherlink.com 1.10,2013-02-20 21:57:00,
2013-02-20 17:12:00,52.2,17.0,29.95,NNW,328,0.0,-999.0,25,-99.99,,,0.00,weatherlink.com 1.10,2013-02-20 22:12:00,
2013-02-20 17:27:00,51.7,19.0,29.96,NNW,329,0.0,-999.0,27,-99.99,,,0.00,weatherlink.com 1.10,2013-02-20 22:27:00,
2013-02-20 17:42:00,51.1,17.0,29.97,NW,319,0.0,-999.0,26,-99.99,,,0.00,weatherlink.com 1.10,2013-02-20 22:42:00,
2013-02-20 17:57:00,50.1,19.0,29.97,West,281,0.0,-999.0,29,-99.99,,,0.00,weatherlink.com 1.10,2013-02-20 22:57:00,
2013-02-20 18:12:00,49.8,25.0,29.99,West,278,0.0,-999.0,38,-99.99,,,0.00,weatherlink.com 1.10,2013-02-20 23:12:00,
2013-02-20 18:27:00,49.9,38.0,30.00,West,265,0.0,-999.0,65,-99.99,,,0.00,weatherlink.com 1.10,2013-02-20 23:27:00,
2013-02-20 18:42:00,49.4,40.0,30.01,WNW,287,0.0,-999.0,70,-99.99,,,0.00,weatherlink.com 1.10,2013-02-20 23:42:00,
2013-02-20 18:58:00,48.9,39.0,30.01,WNW,284,0.0,-999.0,70,-99.99,,,0.00,weatherlink.com 1.10,2013-02-20 23:58:00,
2013-02-20 19:12:00,48.9,40.0,30.01,WNW,292,0.0,-999.0,71,-99.99,,,0.00,weatherlink.com 1.10,2013-02-21 00:12:00,
2013-02-20 19:27:00,49.1,40.0,30.02,NW,312,0.0,-999.0,72,-99.99,,,0.00,weatherlink.com 1.10,2013-02-21 00:27:00,
2013-02-20 19:57:00,48.9,40.0,30.02,West,260,4.0,-999.0,72,-99.99,,,0.00,weatherlink.com 1.10,2013-02-21 00:57:00,
2013-02-20 20:12:00,48.5,40.0,30.02,WNW,296,0.0,-999.0,72,-99.99,,,0.00,weatherlink.com 1.10,2013-02-21 01:12:00,
2013-02-20 20:28:00,48.0,40.0,30.03,NW,309,0.0,-999.0,73,-99.99,,,0.00,weatherlink.com 1.10,2013-02-21 01:28:00,
2013-02-20 20:42:00,47.6,40.0,30.03,WNW,299,0.0,-999.0,74,-99.99,,,0.00,weatherlink.com 1.10,2013-02-21 01:42:00,
2013-02-20 20:57:00,47.1,40.0,30.04,WNW,295,0.0,-999.0,76,-99.99,,,0.00,weatherlink.com 1.10,2013-02-21 01:57:00,
2013-02-20 21:12:00,46.7,40.0,30.05,WNW,298,0.0,-999.0,77,-99.99,,,0.00,weatherlink.com 1.10,2013-02-21 02:12:00,
2013-02-20 21:44:00,45.4,40.0,30.05,WNW,301,0.0,-999.0,80,-99.99,,,0.00,weatherlink.com 1.10,2013-02-21 02:44:00,
2013-02-20 21:57:00,44.9,39.0,30.05,WNW,301,0.0,-999.0,79,-99.99,,,0.00,weatherlink.com 1.10,2013-02-21 02:57:00,
2013-02-20 22:12:00,44.5,38.0,30.05,WNW,301,0.0,-999.0,79,-99.99,,,0.00,weatherlink.com 1.10,2013-02-21 03:12:00,
2013-02-20 22:27:00,43.8,38.0,30.06,WNW,301,0.0,-999.0,79,-99.99,,,0.00,weatherlink.com 1.10,2013-02-21 03:27:00,
2013-02-20 22:42:00,42.3,37.0,30.06,WNW,301,0.0,-999.0,81,-99.99,,,0.00,weatherlink.com 1.10,2013-02-21 03:42:00,
2013-02-20 22:57:00,41.3,36.0,30.06,WNW,301,0.0,-999.0,82,-99.99,,,0.00,weatherlink.com 1.10,2013-02-21 03:57:00,
2013-02-20 23:12:00,40.1,35.0,30.05,WNW,301,0.0,-999.0,83,-99.99,,,0.00,weatherlink.com 1.10,2013-02-21 04:12:00,
2013-02-20 23:27:00,39.8,34.0,30.05,WNW,301,0.0,-999.0,80,-99.99,,,0.00,weatherlink.com 1.10,2013-02-21 04:27:00,
2013-02-20 23:42:00,39.5,34.0,30.04,WNW,301,0.0,-999.0,80,-99.99,,,0.00,weatherlink.com 1.10,2013-02-21 04:42:00,
2013-02-20 23:57:00,38.9,33.0,30.04,WNW,301,0.0,-999.0,79,-99.99,,,0.00,weatherlink.com 1.10,2013-02-21 04:57:00,